Charter Quote
Worldwide +1-877-727-2538 Call
Select Language Lang
SAFETY RELIABILITY EXPERIENCE

Private Jet Charter Services - Karamay Airport (ZWKM)

Paramount Business Jets offers private jet charter flights and luxury airliner charters to and from Karamay Airport.

AIRPORT INFORMATION
ICAOZWKM
LOCATIONKaramay, China
FACILITY TYPEAIRPORT

At Paramount Business Jets you can hire chartered private jets to and from Karamay Airport with as little as 4 hours of notice. All flights booked via Paramount Business Jets are operated by certified direct air carriers that meet and exceed the FAA part 135 and 121 protocol or a foreign equivalent safety authority. Furthermore, Paramount Business Jets subscribes to ARGUS for their third party safety checks of operators, aircraft, and crews prior each and every flight to and from Karamay Airport and worldwide.

  • Quote a trip using Karamay Airport or call us 24/7 - 365 days a year at +1-877-727-2538.
Questions? Call +1-877-727-2538

METAR Weather Data at Karamay Airport, ZWKM

STATIONZWKM
OBSERVEDSun May 11, 05:00 UTC
NOWTue Jul 16, 04:47 UTC
AGE45407:47 hr ago
WINDN at 16 mph, gusting to 27 mph
VISIBILITYgreater than 7 miles
CLOUDSclear skies
TEMP68°F (20°C)
DEWPT9°F (-13°C)
HUMIDITY10%
BAROMETER1013 hPa (29.91 in Hg)
METARZWKM 110500Z 01007G12MPS CAVOK 20/M13 Q1013 NOSIG

Call us on +1-877-727-2538 (24 Hours) to Hire a Private Jet or Get a Quick Quote.

Find Airports Near any Location

Processing
...